createdAt,value
2018-09-11T00:00:13.682Z,1015.16
2018-09-11T00:00:39.819Z,1015.17
2018-09-11T00:01:05.971Z,1015.17
2018-09-11T00:01:32.104Z,1015.2
2018-09-11T00:01:58.239Z,1015.2
2018-09-11T00:02:24.370Z,1015.18
2018-09-11T00:02:50.530Z,1015.16
2018-09-11T00:03:16.660Z,1015.19
2018-09-11T00:03:42.795Z,1015.2
2018-09-11T00:04:08.923Z,1015.15
2018-09-11T00:04:35.059Z,1015.17
2018-09-11T00:05:01.204Z,1015.22
2018-09-11T00:05:27.355Z,1015.14
2018-09-11T00:05:53.492Z,1015.17
2018-09-11T00:06:19.649Z,1015.18
2018-09-11T00:06:45.791Z,1015.17
2018-09-11T00:07:11.928Z,1015.17
2018-09-11T00:07:38.060Z,1015.18
2018-09-11T00:08:04.227Z,1015.15
2018-09-11T00:08:30.365Z,1015.19
2018-09-11T00:08:56.498Z,1015.17
2018-09-11T00:09:22.629Z,1015.2
2018-09-11T00:09:48.764Z,1015.15
2018-09-11T00:10:14.902Z,1015.2
2018-09-11T00:10:41.034Z,1015.19
2018-09-11T00:11:07.166Z,1015.21
2018-09-11T00:11:33.300Z,1015.23
2018-09-11T00:11:59.461Z,1015.23
2018-09-11T00:12:25.637Z,1015.22
2018-09-11T00:12:51.769Z,1015.25
2018-09-11T00:13:17.926Z,1015.23
2018-09-11T00:13:44.062Z,1015.25
2018-09-11T00:14:10.193Z,1015.25
2018-09-11T00:14:36.353Z,1015.23
2018-09-11T00:15:02.484Z,1015.24
2018-09-11T00:15:28.647Z,1015.27
2018-09-11T00:15:54.800Z,1015.29
2018-09-11T00:16:20.934Z,1015.27
2018-09-11T00:16:47.064Z,1015.26
2018-09-11T00:17:13.205Z,1015.26
2018-09-11T00:17:42.368Z,1015.26
2018-09-11T00:18:08.503Z,1015.27
2018-09-11T00:18:34.632Z,1015.3
2018-09-11T00:19:00.768Z,1015.27
2018-09-11T00:19:26.892Z,1015.3
2018-09-11T00:19:53.023Z,1015.25
2018-09-11T00:20:19.165Z,1015.3
2018-09-11T00:20:45.328Z,1015.31
2018-09-11T00:21:11.461Z,1015.31
2018-09-11T00:21:37.590Z,1015.28
2018-09-11T00:22:03.724Z,1015.31
2018-09-11T00:22:29.857Z,1015.29
2018-09-11T00:22:56.019Z,1015.3
2018-09-11T00:23:22.152Z,1015.28
2018-09-11T00:23:48.290Z,1015.29
2018-09-11T00:24:14.421Z,1015.29
2018-09-11T00:24:40.559Z,1015.23
2018-09-11T00:25:06.695Z,1015.22
2018-09-11T00:25:32.825Z,1015.25
2018-09-11T00:25:58.981Z,1015.23
2018-09-11T00:26:25.112Z,1015.22
2018-09-11T00:26:51.264Z,1015.25
2018-09-11T00:27:17.400Z,1015.31
2018-09-11T00:27:43.529Z,1015.28
2018-09-11T00:28:09.670Z,1015.29
2018-09-11T00:28:35.804Z,1015.36
2018-09-11T00:29:01.963Z,1015.32
2018-09-11T00:29:28.113Z,1015.35
2018-09-11T00:29:54.254Z,1015.37
2018-09-11T00:30:20.408Z,1015.29
2018-09-11T00:30:46.547Z,1015.4
2018-09-11T00:31:12.680Z,1015.36
2018-09-11T00:31:38.840Z,1015.35
2018-09-11T00:32:04.983Z,1015.29
2018-09-11T00:32:31.104Z,1015.34
2018-09-11T00:32:57.239Z,1015.28
2018-09-11T00:33:23.390Z,1015.29
2018-09-11T00:33:49.549Z,1015.3
2018-09-11T00:34:15.673Z,1015.26
2018-09-11T00:34:41.806Z,1015.26
2018-09-11T00:35:07.940Z,1015.27
2018-09-11T00:35:34.077Z,1015.19
2018-09-11T00:36:00.211Z,1015.24
2018-09-11T00:36:26.347Z,1015.18
2018-09-11T00:36:52.487Z,1015.19
2018-09-11T00:37:18.619Z,1015.22
2018-09-11T00:37:44.768Z,1015.19
2018-09-11T00:38:10.892Z,1015.17
2018-09-11T00:38:37.033Z,1015.22
2018-09-11T00:39:03.162Z,1015.18
2018-09-11T00:39:29.323Z,1015.14
2018-09-11T00:39:55.515Z,1015.16
2018-09-11T00:40:21.648Z,1015.2
2018-09-11T00:40:47.783Z,1015.19
2018-09-11T00:41:13.920Z,1015.17
2018-09-11T00:41:40.056Z,1015.17
2018-09-11T00:42:06.217Z,1015.19
2018-09-11T00:42:32.354Z,1015.22
2018-09-11T00:42:58.481Z,1015.23
2018-09-11T00:43:24.638Z,1015.27
2018-09-11T00:43:50.775Z,1015.26
2018-09-11T00:44:16.910Z,1015.28
2018-09-11T00:44:43.066Z,1015.26
2018-09-11T00:45:09.205Z,1015.27
2018-09-11T00:45:35.339Z,1015.27
2018-09-11T00:46:01.475Z,1015.26
2018-09-11T00:46:27.609Z,1015.24
2018-09-11T00:46:53.762Z,1015.27
2018-09-11T00:47:19.896Z,1015.27
2018-09-11T00:47:46.030Z,1015.28
2018-09-11T00:48:12.167Z,1015.31
2018-09-11T00:48:38.298Z,1015.25
2018-09-11T00:49:04.439Z,1015.25
2018-09-11T00:49:30.595Z,1015.24
2018-09-11T00:49:56.756Z,1015.23
2018-09-11T00:50:22.886Z,1015.23
2018-09-11T00:50:49.023Z,1015.2
2018-09-11T00:51:15.153Z,1015.19
2018-09-11T00:51:41.337Z,1015.23
2018-09-11T00:52:07.443Z,1015.18
2018-09-11T00:52:33.574Z,1015.16
2018-09-11T00:52:59.711Z,1015.15
2018-09-11T00:53:25.866Z,1015.16
2018-09-11T00:53:52.005Z,1015.13
2018-09-11T00:54:18.168Z,1015.1
2018-09-11T00:54:44.298Z,1015.11
2018-09-11T00:55:10.439Z,1015.1
2018-09-11T00:55:36.572Z,1015.13
2018-09-11T00:56:02.712Z,1015.09
2018-09-11T00:56:28.843Z,1015.09
2018-09-11T00:56:54.979Z,1015.1
2018-09-11T00:57:21.116Z,1015.11
2018-09-11T00:57:47.270Z,1015.13
2018-09-11T00:58:13.406Z,1015.1
2018-09-11T00:58:39.572Z,1015.12
2018-09-11T00:59:05.709Z,1015.12
2018-09-11T00:59:31.840Z,1015.13
2018-09-11T00:59:57.973Z,1015.14
2018-09-11T01:00:24.141Z,1015.1
2018-09-11T01:00:50.278Z,1015.13
2018-09-11T01:01:16.454Z,1015.14
2018-09-11T01:01:42.610Z,1015.18
2018-09-11T01:02:08.773Z,1015.15
2018-09-11T01:02:34.909Z,1015.16
2018-09-11T01:03:01.045Z,1015.15
2018-09-11T01:03:27.181Z,1015.18
2018-09-11T01:03:53.318Z,1015.2
2018-09-11T01:04:19.455Z,1015.19
2018-09-11T01:04:45.603Z,1015.19
2018-09-11T01:05:11.758Z,1015.18
2018-09-11T01:05:37.920Z,1015.17
2018-09-11T01:06:04.078Z,1015.15
2018-09-11T01:06:30.227Z,1015.16
2018-09-11T01:06:56.358Z,1015.13
2018-09-11T01:07:22.518Z,1015.11
2018-09-11T01:07:48.677Z,1015.09
2018-09-11T01:08:14.836Z,1015.08
2018-09-11T01:08:40.968Z,1015.03
2018-09-11T01:09:07.104Z,1015.02
2018-09-11T01:09:33.241Z,1014.98
2018-09-11T01:09:59.412Z,1014.95
2018-09-11T01:10:25.557Z,1014.95
2018-09-11T01:10:51.718Z,1014.94
2018-09-11T01:11:17.846Z,1014.92
2018-09-11T01:11:43.987Z,1014.9
2018-09-11T01:12:10.116Z,1014.94
2018-09-11T01:12:36.254Z,1014.91
2018-09-11T01:13:02.385Z,1014.95
2018-09-11T01:13:28.545Z,1014.9
2018-09-11T01:13:54.687Z,1014.89
2018-09-11T01:14:20.856Z,1014.87
2018-09-11T01:14:47.025Z,1014.88
2018-09-11T01:15:13.180Z,1014.89
2018-09-11T01:15:39.321Z,1014.91
2018-09-11T01:16:05.470Z,1014.89
2018-09-11T01:16:31.608Z,1014.92
2018-09-11T01:16:57.752Z,1014.86
2018-09-11T01:17:23.907Z,1014.93
2018-09-11T01:17:50.043Z,1014.93
2018-09-11T01:18:16.221Z,1014.93
2018-09-11T01:18:42.364Z,1014.94
2018-09-11T01:19:08.519Z,1014.99
2018-09-11T01:19:34.659Z,1014.94
2018-09-11T01:20:00.812Z,1014.94
2018-09-11T01:20:26.952Z,1014.96
2018-09-11T01:20:53.094Z,1014.95
2018-09-11T01:21:19.225Z,1014.98
2018-09-11T01:21:45.362Z,1014.94
2018-09-11T01:22:11.503Z,1014.95
2018-09-11T01:22:37.635Z,1014.95
2018-09-11T01:23:03.772Z,1014.9
2018-09-11T01:23:29.910Z,1014.95
2018-09-11T01:23:56.091Z,1014.91
2018-09-11T01:24:22.252Z,1014.92
2018-09-11T01:24:48.426Z,1014.96
2018-09-11T01:25:14.561Z,1014.95
2018-09-11T01:25:40.691Z,1015
2018-09-11T01:26:06.837Z,1015
2018-09-11T01:26:32.969Z,1015
2018-09-11T01:26:59.106Z,1015.01
2018-09-11T01:27:25.269Z,1015.03
2018-09-11T01:27:51.413Z,1015.05
2018-09-11T01:28:17.555Z,1015.03
2018-09-11T01:28:43.694Z,1015.05
2018-09-11T01:29:09.826Z,1015.09
2018-09-11T01:29:35.965Z,1015.07
2018-09-11T01:30:02.115Z,1015.13
2018-09-11T01:30:28.249Z,1015.16
2018-09-11T01:30:54.383Z,1015.1
2018-09-11T01:31:20.510Z,1015.16
2018-09-11T01:31:46.647Z,1015.13
2018-09-11T01:32:12.775Z,1015.15
2018-09-11T01:32:38.917Z,1015.14
2018-09-11T01:33:05.048Z,1015.15
2018-09-11T01:33:31.209Z,1015.17
2018-09-11T01:33:57.393Z,1015.11
2018-09-11T01:34:23.523Z,1015.12
2018-09-11T01:34:49.653Z,1015.12
2018-09-11T01:35:15.792Z,1015.16
2018-09-11T01:35:41.923Z,1015.12
2018-09-11T01:36:08.077Z,1015.11
2018-09-11T01:36:34.254Z,1015.12
2018-09-11T01:37:00.384Z,1015.09
2018-09-11T01:37:26.526Z,1015.07
2018-09-11T01:37:52.678Z,1015.15
2018-09-11T01:38:18.834Z,1015.12
2018-09-11T01:38:44.998Z,1015.12
2018-09-11T01:39:11.128Z,1015.13
2018-09-11T01:39:37.261Z,1015.11
2018-09-11T01:40:03.416Z,1015.08
2018-09-11T01:40:29.560Z,1015.04
2018-09-11T01:40:55.696Z,1015.05
2018-09-11T01:41:21.854Z,1015.05
2018-09-11T01:41:47.990Z,1015.02
2018-09-11T01:42:14.128Z,1015.01
2018-09-11T01:42:40.291Z,1015.04
2018-09-11T01:43:06.422Z,1014.96
2018-09-11T01:43:32.546Z,1014.97
2018-09-11T01:43:58.682Z,1014.99
2018-09-11T01:44:24.844Z,1014.94
2018-09-11T01:44:50.970Z,1015.02
2018-09-11T01:45:17.102Z,1015.01
2018-09-11T01:45:43.236Z,1014.98
2018-09-11T01:46:09.404Z,1014.97
2018-09-11T01:46:35.531Z,1014.97
2018-09-11T01:47:01.670Z,1014.96
2018-09-11T01:47:27.807Z,1015
2018-09-11T01:47:53.943Z,1015.01
2018-09-11T01:48:20.095Z,1015
2018-09-11T01:48:46.252Z,1015.04
2018-09-11T01:49:12.410Z,1015.01
2018-09-11T01:49:38.548Z,1015.02
2018-09-11T01:50:04.679Z,1015.02
2018-09-11T01:50:30.810Z,1015.02
2018-09-11T01:50:56.974Z,1015.02
2018-09-11T01:51:23.107Z,1015.01
2018-09-11T01:51:49.243Z,1014.98
2018-09-11T01:52:15.370Z,1015.02
2018-09-11T01:52:41.518Z,1015.01
2018-09-11T01:53:07.652Z,1015.03
2018-09-11T01:53:33.787Z,1015.03
2018-09-11T01:53:59.918Z,1015.01
2018-09-11T01:54:26.062Z,1015.02
2018-09-11T01:54:52.195Z,1015.01
2018-09-11T01:55:18.329Z,1015
2018-09-11T01:55:44.458Z,1015.01
2018-09-11T01:56:10.608Z,1015.01
2018-09-11T01:56:36.760Z,1015.01
2018-09-11T01:57:02.897Z,1015.02
2018-09-11T01:57:29.024Z,1014.98
2018-09-11T01:57:55.187Z,1015.02
2018-09-11T01:58:21.322Z,1014.99
2018-09-11T01:58:47.457Z,1014.96
2018-09-11T01:59:13.603Z,1014.96
2018-09-11T01:59:39.720Z,1014.94
2018-09-11T02:00:05.860Z,1014.98
2018-09-11T02:00:31.998Z,1014.94
2018-09-11T02:00:58.137Z,1014.93
2018-09-11T02:01:24.292Z,1014.93
2018-09-11T02:01:50.442Z,1014.92
2018-09-11T02:02:16.601Z,1014.99
2018-09-11T02:02:42.759Z,1014.97
2018-09-11T02:03:08.894Z,1014.99
2018-09-11T02:03:35.031Z,1014.98
2018-09-11T02:04:01.165Z,1014.98
2018-09-11T02:04:27.305Z,1014.95
2018-09-11T02:04:53.459Z,1014.98
2018-09-11T02:05:19.586Z,1014.89
2018-09-11T02:05:45.745Z,1014.96
2018-09-11T02:06:11.901Z,1014.91
2018-09-11T02:06:38.033Z,1014.92
2018-09-11T02:07:04.193Z,1014.92
2018-09-11T02:07:30.327Z,1014.91
2018-09-11T02:07:56.467Z,1014.9
2018-09-11T02:08:22.601Z,1014.87
2018-09-11T02:08:48.769Z,1014.87
2018-09-11T02:09:14.922Z,1014.9
2018-09-11T02:09:41.061Z,1014.88
2018-09-11T02:10:07.220Z,1014.89
2018-09-11T02:10:33.378Z,1014.85
2018-09-11T02:10:59.515Z,1014.88
2018-09-11T02:11:25.647Z,1014.83
2018-09-11T02:11:51.804Z,1014.85
2018-09-11T02:12:17.934Z,1014.85
2018-09-11T02:12:44.070Z,1014.85
2018-09-11T02:13:10.206Z,1014.85
2018-09-11T02:13:36.364Z,1014.86
2018-09-11T02:14:02.496Z,1014.84
2018-09-11T02:14:28.625Z,1014.84
2018-09-11T02:14:54.737Z,1014.8
2018-09-11T02:15:20.860Z,1014.84
2018-09-11T02:15:46.986Z,1014.81
2018-09-11T02:16:13.107Z,1014.82
2018-09-11T02:16:39.218Z,1014.86
2018-09-11T02:17:05.365Z,1014.81
2018-09-11T02:17:31.481Z,1014.85
2018-09-11T02:17:57.609Z,1014.81
2018-09-11T02:18:23.738Z,1014.85
2018-09-11T02:18:49.865Z,1014.84
2018-09-11T02:19:15.990Z,1014.81
2018-09-11T02:19:42.103Z,1014.81
2018-09-11T02:20:08.223Z,1014.82
2018-09-11T02:20:34.350Z,1014.8
2018-09-11T02:21:00.482Z,1014.83
2018-09-11T02:21:26.604Z,1014.87
2018-09-11T02:21:52.743Z,1014.89
2018-09-11T02:22:18.866Z,1014.85
2018-09-11T02:22:44.991Z,1014.91
2018-09-11T02:23:11.104Z,1014.87
2018-09-11T02:23:37.226Z,1014.9
2018-09-11T02:24:03.343Z,1014.91
2018-09-11T02:24:29.487Z,1014.91
2018-09-11T02:24:55.610Z,1014.95
2018-09-11T02:25:23.137Z,1014.96
2018-09-11T02:25:49.241Z,1014.94
2018-09-11T02:26:15.340Z,1014.91
2018-09-11T02:26:41.441Z,1014.91
2018-09-11T02:27:07.544Z,1014.93
2018-09-11T02:27:33.646Z,1014.96
2018-09-11T02:27:59.746Z,1014.98
2018-09-11T02:28:25.846Z,1014.87
2018-09-11T02:28:51.947Z,1014.93
2018-09-11T02:29:18.047Z,1014.94
2018-09-11T02:29:44.164Z,1014.95
2018-09-11T02:30:10.264Z,1014.87
2018-09-11T02:30:36.430Z,1014.94
2018-09-11T02:31:02.529Z,1014.94
2018-09-11T02:31:28.647Z,1014.96
2018-09-11T02:31:54.762Z,1014.94
2018-09-11T02:32:20.880Z,1014.93
2018-09-11T02:32:47.000Z,1014.92
2018-09-11T02:33:13.116Z,1014.92
2018-09-11T02:33:39.238Z,1014.98
2018-09-11T02:34:05.366Z,1014.95
2018-09-11T02:34:31.482Z,1014.92
2018-09-11T02:34:57.583Z,1014.99
2018-09-11T02:35:23.685Z,1015.03
2018-09-11T02:35:49.867Z,1015.02
2018-09-11T02:36:15.918Z,1015.03
2018-09-11T02:36:42.014Z,1015.02
2018-09-11T02:37:08.131Z,1014.95
2018-09-11T02:37:34.269Z,1014.98
2018-09-11T02:38:00.421Z,1015.02
2018-09-11T02:38:26.555Z,1015.01
2018-09-11T02:38:52.707Z,1014.96
2018-09-11T02:39:18.877Z,1014.97
2018-09-11T02:39:45.030Z,1014.95
2018-09-11T02:40:11.189Z,1014.94
2018-09-11T02:40:37.347Z,1014.98
2018-09-11T02:41:03.502Z,1014.95
2018-09-11T02:41:29.637Z,1015.01
2018-09-11T02:41:55.837Z,1015.03
2018-09-11T02:42:21.993Z,1015.01
2018-09-11T02:42:48.127Z,1014.96
2018-09-11T02:43:14.291Z,1014.95
2018-09-11T02:43:40.428Z,1014.96
2018-09-11T02:44:06.574Z,1015
2018-09-11T02:44:32.712Z,1014.99
2018-09-11T02:44:58.861Z,1014.95
2018-09-11T02:45:24.998Z,1014.95
2018-09-11T02:45:51.152Z,1014.98
2018-09-11T02:46:17.289Z,1014.99
2018-09-11T02:46:43.421Z,1014.98
2018-09-11T02:47:09.556Z,1014.95
2018-09-11T02:47:35.683Z,1014.95
2018-09-11T02:48:01.810Z,1014.96
2018-09-11T02:48:27.946Z,1014.97
2018-09-11T02:48:54.082Z,1014.98
2018-09-11T02:49:20.280Z,1014.93
2018-09-11T02:49:46.405Z,1014.98
2018-09-11T02:50:12.534Z,1014.96
2018-09-11T02:50:38.667Z,1014.98
2018-09-11T02:51:04.825Z,1014.96
2018-09-11T02:51:30.966Z,1014.96
2018-09-11T02:51:57.095Z,1014.98
2018-09-11T02:52:23.262Z,1015.01
2018-09-11T02:52:49.391Z,1014.99
2018-09-11T02:53:15.547Z,1014.96
2018-09-11T02:53:41.681Z,1014.98
2018-09-11T02:54:07.821Z,1014.92
2018-09-11T02:54:33.954Z,1014.92
2018-09-11T02:55:00.116Z,1014.97
2018-09-11T02:55:26.289Z,1014.95
2018-09-11T02:55:52.505Z,1014.96
2018-09-11T02:56:18.683Z,1014.95
2018-09-11T02:56:44.904Z,1014.99
2018-09-11T02:57:11.007Z,1014.9
2018-09-11T02:57:37.144Z,1014.92
2018-09-11T02:58:03.282Z,1014.96
2018-09-11T02:58:29.407Z,1014.91
2018-09-11T02:58:55.606Z,1014.88
2018-09-11T02:59:21.771Z,1014.92
2018-09-11T02:59:47.928Z,1014.91
2018-09-11T03:00:14.064Z,1014.94
2018-09-11T03:00:40.189Z,1014.91
2018-09-11T03:01:06.346Z,1014.94
2018-09-11T03:01:32.475Z,1014.93
2018-09-11T03:01:58.613Z,1014.96
2018-09-11T03:02:24.777Z,1014.94
2018-09-11T03:02:50.932Z,1014.97
2018-09-11T03:03:17.101Z,1014.93
2018-09-11T03:03:43.226Z,1014.97
2018-09-11T03:04:09.357Z,1014.98
2018-09-11T03:04:35.512Z,1014.95
2018-09-11T03:05:01.651Z,1015
2018-09-11T03:05:27.802Z,1014.97
2018-09-11T03:05:53.945Z,1015.02
2018-09-11T03:06:20.088Z,1014.98
2018-09-11T03:06:46.232Z,1015.01
2018-09-11T03:07:12.378Z,1014.93
2018-09-11T03:07:38.528Z,1014.91
2018-09-11T03:08:04.712Z,1014.97
2018-09-11T03:08:30.859Z,1014.91
2018-09-11T03:08:56.998Z,1014.99
2018-09-11T03:09:23.128Z,1014.98
2018-09-11T03:09:49.263Z,1015.01
2018-09-11T03:10:15.397Z,1014.97
2018-09-11T03:10:41.606Z,1015
2018-09-11T03:11:07.782Z,1014.96
2018-09-11T03:11:33.966Z,1014.94
2018-09-11T03:12:00.097Z,1014.93
2018-09-11T03:12:26.232Z,1014.95
2018-09-11T03:12:52.374Z,1014.95
2018-09-11T03:13:18.513Z,1014.95
2018-09-11T03:13:44.637Z,1014.92
2018-09-11T03:14:10.774Z,1014.94
2018-09-11T03:14:36.925Z,1014.97
2018-09-11T03:15:03.086Z,1014.99
2018-09-11T03:15:29.259Z,1014.93
2018-09-11T03:15:55.392Z,1014.91
2018-09-11T03:16:21.543Z,1014.93
2018-09-11T03:16:47.703Z,1014.9
2018-09-11T03:17:13.857Z,1014.88
2018-09-11T03:17:40.019Z,1014.94
2018-09-11T03:18:06.154Z,1014.95
2018-09-11T03:18:32.286Z,1014.95
2018-09-11T03:18:58.524Z,1014.95
2018-09-11T03:19:24.554Z,1014.96
2018-09-11T03:19:50.682Z,1014.98
2018-09-11T03:20:16.844Z,1014.98
2018-09-11T03:20:43.005Z,1014.95
2018-09-11T03:21:09.147Z,1014.93
2018-09-11T03:21:35.280Z,1015
2018-09-11T03:22:01.436Z,1014.97
2018-09-11T03:22:27.577Z,1015
2018-09-11T03:22:53.716Z,1014.92
2018-09-11T03:23:19.856Z,1014.98
2018-09-11T03:23:46.032Z,1015.02
2018-09-11T03:24:12.172Z,1015.01
2018-09-11T03:24:38.305Z,1014.94
2018-09-11T03:25:04.462Z,1015.06
2018-09-11T03:25:30.587Z,1014.98
2018-09-11T03:25:56.741Z,1014.98
2018-09-11T03:26:22.931Z,1015
2018-09-11T03:26:49.092Z,1015.01
2018-09-11T03:27:15.282Z,1015
2018-09-11T03:27:41.454Z,1015.01
2018-09-11T03:28:07.588Z,1015.03
2018-09-11T03:28:33.716Z,1015.01
2018-09-11T03:28:59.855Z,1015.02
2018-09-11T03:29:25.985Z,1015.06
2018-09-11T03:29:52.126Z,1015.04
2018-09-11T03:30:18.272Z,1015.04
2018-09-11T03:30:44.430Z,1015.05
2018-09-11T03:31:10.560Z,1015.08
2018-09-11T03:31:36.718Z,1015.09
2018-09-11T03:32:02.874Z,1015.07
2018-09-11T03:32:29.037Z,1015.06
2018-09-11T03:32:55.190Z,1015.05
2018-09-11T03:33:21.325Z,1015.07
2018-09-11T03:33:47.450Z,1015.05
2018-09-11T03:34:13.614Z,1015.02
2018-09-11T03:34:39.783Z,1015.02
2018-09-11T03:35:05.921Z,1015.01
2018-09-11T03:35:32.050Z,1014.99
2018-09-11T03:35:58.192Z,1014.97
2018-09-11T03:36:24.319Z,1015
2018-09-11T03:36:50.505Z,1015.02
2018-09-11T03:37:16.657Z,1014.99
2018-09-11T03:37:42.786Z,1015
2018-09-11T03:38:08.943Z,1015.01
2018-09-11T03:38:35.099Z,1015.02
2018-09-11T03:39:01.266Z,1015
2018-09-11T03:39:27.416Z,1015.01
2018-09-11T03:39:53.574Z,1015.05
2018-09-11T03:40:19.712Z,1015.01
2018-09-11T03:40:45.874Z,1015.02
2018-09-11T03:41:12.007Z,1014.98
2018-09-11T03:41:38.134Z,1014.96
2018-09-11T03:42:04.265Z,1014.97
2018-09-11T03:42:30.396Z,1015.01
2018-09-11T03:42:56.533Z,1014.92
2018-09-11T03:43:22.666Z,1014.91
2018-09-11T03:43:48.839Z,1014.94
2018-09-11T03:44:15.097Z,1014.95
2018-09-11T03:44:41.124Z,1014.94
2018-09-11T03:45:07.259Z,1014.88
2018-09-11T03:45:33.394Z,1014.87
2018-09-11T03:45:59.525Z,1014.87
2018-09-11T03:46:25.691Z,1014.84
2018-09-11T03:46:51.820Z,1014.88
2018-09-11T03:47:17.949Z,1014.85
2018-09-11T03:47:44.082Z,1014.86
2018-09-11T03:48:10.213Z,1014.91
2018-09-11T03:48:36.379Z,1014.85
2018-09-11T03:49:02.513Z,1014.82
2018-09-11T03:49:28.674Z,1014.85
2018-09-11T03:49:54.824Z,1014.86
2018-09-11T03:50:20.957Z,1014.83
2018-09-11T03:50:47.116Z,1014.85
2018-09-11T03:51:13.274Z,1014.81
2018-09-11T03:51:39.401Z,1014.82
2018-09-11T03:52:05.537Z,1014.83
2018-09-11T03:52:31.667Z,1014.85
2018-09-11T03:52:57.807Z,1014.85
2018-09-11T03:53:23.963Z,1014.85
2018-09-11T03:53:50.097Z,1014.86
2018-09-11T03:54:16.283Z,1014.85
2018-09-11T03:54:42.433Z,1014.83
2018-09-11T03:55:08.594Z,1014.84
2018-09-11T03:55:34.724Z,1014.87
2018-09-11T03:56:00.864Z,1014.83
2018-09-11T03:56:27.015Z,1014.85
2018-09-11T03:56:53.158Z,1014.81
2018-09-11T03:57:19.315Z,1014.86
2018-09-11T03:57:45.455Z,1014.85
2018-09-11T03:58:11.588Z,1014.82
2018-09-11T03:58:37.745Z,1014.84
2018-09-11T03:59:03.885Z,1014.87
2018-09-11T03:59:30.026Z,1014.84
2018-09-11T03:59:56.180Z,1014.86
2018-09-11T04:00:22.334Z,1014.9
2018-09-11T04:00:48.493Z,1014.85
2018-09-11T04:01:14.679Z,1014.9
2018-09-11T04:01:40.828Z,1014.89
2018-09-11T04:02:06.963Z,1014.89
2018-09-11T04:02:33.141Z,1014.89
2018-09-11T04:02:59.272Z,1014.89
2018-09-11T04:03:25.403Z,1014.9
2018-09-11T04:03:51.560Z,1014.91
2018-09-11T04:04:17.711Z,1014.93
2018-09-11T04:04:43.850Z,1014.91
2018-09-11T04:05:10.028Z,1014.93
2018-09-11T04:05:36.310Z,1014.93
2018-09-11T04:06:02.317Z,1014.88
2018-09-11T04:06:28.467Z,1014.93
2018-09-11T04:06:54.630Z,1014.95
2018-09-11T04:07:20.776Z,1014.9
2018-09-11T04:07:46.922Z,1014.9
2018-09-11T04:08:13.072Z,1014.81
2018-09-11T04:08:39.238Z,1014.87
2018-09-11T04:09:05.380Z,1014.86
2018-09-11T04:09:31.528Z,1014.83
2018-09-11T04:09:57.684Z,1014.83
2018-09-11T04:10:23.819Z,1014.84
2018-09-11T04:10:49.979Z,1014.85
2018-09-11T04:11:16.112Z,1014.87
2018-09-11T04:11:42.260Z,1014.84
2018-09-11T04:12:08.418Z,1014.89
2018-09-11T04:12:34.547Z,1014.9
2018-09-11T04:13:00.683Z,1014.87
2018-09-11T04:13:26.814Z,1014.89
2018-09-11T04:13:52.966Z,1014.89
2018-09-11T04:14:19.120Z,1014.89
2018-09-11T04:14:45.261Z,1014.91
2018-09-11T04:15:11.395Z,1014.9
2018-09-11T04:15:37.549Z,1014.88
2018-09-11T04:16:03.707Z,1014.91
2018-09-11T04:16:29.860Z,1014.89
2018-09-11T04:16:56.006Z,1014.91
2018-09-11T04:17:22.137Z,1014.84
2018-09-11T04:17:48.289Z,1014.89
2018-09-11T04:18:14.432Z,1014.96
2018-09-11T04:18:40.571Z,1014.89
2018-09-11T04:19:06.705Z,1014.82
2018-09-11T04:19:32.841Z,1014.84
2018-09-11T04:19:58.968Z,1014.82
2018-09-11T04:20:25.133Z,1014.8
2018-09-11T04:20:51.292Z,1014.78
2018-09-11T04:21:17.476Z,1014.83
2018-09-11T04:21:43.630Z,1014.8
2018-09-11T04:22:09.804Z,1014.78
2018-09-11T04:22:35.957Z,1014.79
2018-09-11T04:23:02.096Z,1014.75
2018-09-11T04:23:28.244Z,1014.77
2018-09-11T04:23:54.369Z,1014.8
2018-09-11T04:24:20.528Z,1014.76
2018-09-11T04:24:46.683Z,1014.71
2018-09-11T04:25:12.821Z,1014.67
2018-09-11T04:25:39.053Z,1014.68
2018-09-11T04:26:05.108Z,1014.71
2018-09-11T04:26:31.235Z,1014.69
2018-09-11T04:26:57.365Z,1014.67
2018-09-11T04:27:23.499Z,1014.67
2018-09-11T04:27:49.652Z,1014.64
2018-09-11T04:28:15.788Z,1014.64
2018-09-11T04:28:41.918Z,1014.66
2018-09-11T04:29:08.073Z,1014.67
2018-09-11T04:29:34.229Z,1014.68
2018-09-11T04:30:00.365Z,1014.65
2018-09-11T04:30:26.493Z,1014.7
2018-09-11T04:30:52.649Z,1014.63
2018-09-11T04:31:18.786Z,1014.65
2018-09-11T04:31:44.923Z,1014.67
2018-09-11T04:32:11.074Z,1014.62
2018-09-11T04:32:37.233Z,1014.64
2018-09-11T04:33:03.365Z,1014.66
2018-09-11T04:33:29.497Z,1014.65
2018-09-11T04:33:55.641Z,1014.64
2018-09-11T04:34:21.800Z,1014.6
2018-09-11T04:34:47.984Z,1014.67
2018-09-11T04:35:14.130Z,1014.6
2018-09-11T04:35:40.263Z,1014.58
2018-09-11T04:36:06.419Z,1014.61
2018-09-11T04:36:32.651Z,1014.57
2018-09-11T04:36:58.685Z,1014.61
2018-09-11T04:37:24.816Z,1014.56
2018-09-11T04:37:50.968Z,1014.55
2018-09-11T04:38:17.121Z,1014.56
2018-09-11T04:38:43.282Z,1014.56
2018-09-11T04:39:09.410Z,1014.52
2018-09-11T04:39:35.543Z,1014.52
2018-09-11T04:40:01.680Z,1014.51
2018-09-11T04:40:27.816Z,1014.53
2018-09-11T04:40:53.965Z,1014.5
2018-09-11T04:41:20.103Z,1014.47
2018-09-11T04:41:46.230Z,1014.55
2018-09-11T04:42:12.367Z,1014.56
2018-09-11T04:42:38.501Z,1014.54
2018-09-11T04:43:04.698Z,1014.51
2018-09-11T04:43:30.789Z,1014.51
2018-09-11T04:43:56.934Z,1014.5
2018-09-11T04:44:23.102Z,1014.5
2018-09-11T04:44:49.272Z,1014.47
2018-09-11T04:45:15.408Z,1014.5
2018-09-11T04:45:41.538Z,1014.46
2018-09-11T04:46:07.696Z,1014.49
2018-09-11T04:46:33.855Z,1014.4
2018-09-11T04:47:00.034Z,1014.47
2018-09-11T04:47:26.170Z,1014.44
2018-09-11T04:47:52.300Z,1014.47
2018-09-11T04:48:18.491Z,1014.44
2018-09-11T04:48:44.582Z,1014.48
2018-09-11T04:49:10.714Z,1014.49
2018-09-11T04:49:36.848Z,1014.5
2018-09-11T04:50:02.998Z,1014.4
2018-09-11T04:50:29.158Z,1014.47
2018-09-11T04:50:55.340Z,1014.45
2018-09-11T04:51:21.505Z,1014.49
2018-09-11T04:51:47.634Z,1014.43
2018-09-11T04:52:13.800Z,1014.52
2018-09-11T04:52:39.956Z,1014.47
2018-09-11T04:53:06.133Z,1014.45
2018-09-11T04:53:32.293Z,1014.46
2018-09-11T04:53:58.428Z,1014.47
2018-09-11T04:54:24.657Z,1014.45
2018-09-11T04:54:50.807Z,1014.44
2018-09-11T04:55:16.963Z,1014.45
2018-09-11T04:55:43.094Z,1014.4
2018-09-11T04:56:09.304Z,1014.43
2018-09-11T04:56:35.413Z,1014.49
2018-09-11T04:57:01.546Z,1014.46
2018-09-11T04:57:27.705Z,1014.44
2018-09-11T04:57:53.880Z,1014.42
2018-09-11T04:58:20.009Z,1014.39
2018-09-11T04:58:46.141Z,1014.46
2018-09-11T04:59:12.277Z,1014.41
2018-09-11T04:59:38.410Z,1014.39
2018-09-11T05:00:04.566Z,1014.4
2018-09-11T05:00:30.707Z,1014.41
2018-09-11T05:00:56.839Z,1014.39
2018-09-11T05:01:22.976Z,1014.44
2018-09-11T05:01:49.129Z,1014.48
2018-09-11T05:02:15.274Z,1014.47
2018-09-11T05:02:41.421Z,1014.4
2018-09-11T05:03:07.561Z,1014.47
2018-09-11T05:03:33.692Z,1014.51
2018-09-11T05:03:59.820Z,1014.48
2018-09-11T05:04:25.978Z,1014.51
2018-09-11T05:04:52.112Z,1014.51
2018-09-11T05:05:18.240Z,1014.49
2018-09-11T05:05:44.403Z,1014.47
2018-09-11T05:06:10.577Z,1014.46
2018-09-11T05:06:36.708Z,1014.55
2018-09-11T05:07:02.888Z,1014.52
2018-09-11T05:07:28.965Z,1014.54
2018-09-11T05:07:55.104Z,1014.53
2018-09-11T05:08:21.227Z,1014.49
2018-09-11T05:08:47.382Z,1014.55
2018-09-11T05:09:13.509Z,1014.52
2018-09-11T05:09:39.672Z,1014.54
2018-09-11T05:10:05.806Z,1014.53
2018-09-11T05:10:31.939Z,1014.48
2018-09-11T05:10:58.068Z,1014.52
2018-09-11T05:11:24.207Z,1014.53
2018-09-11T05:11:50.357Z,1014.51
2018-09-11T05:12:16.488Z,1014.56
2018-09-11T05:12:42.674Z,1014.54
2018-09-11T05:13:08.814Z,1014.53
2018-09-11T05:13:34.950Z,1014.51
2018-09-11T05:14:01.080Z,1014.46
2018-09-11T05:14:27.246Z,1014.48
2018-09-11T05:14:53.380Z,1014.48
2018-09-11T05:15:19.519Z,1014.53
2018-09-11T05:15:45.640Z,1014.53
2018-09-11T05:16:11.783Z,1014.45
2018-09-11T05:16:37.907Z,1014.5
2018-09-11T05:17:04.045Z,1014.51
2018-09-11T05:17:30.200Z,1014.54